Terminal Aerodrome Forecast
Issued by NWS

Home | Current Version | Previous Version | Text Only | Print | Product List | Glossary On
Versions: 1 2 3 4 5 6 7 8 9 10 11 12 13 14 15
000
FTUS45 KREV 231100
TAFTRK
TAF
KTRK 231134Z 2312/2412 VRB03KT P6SM SCT180
     FM231800 27008KT P6SM FEW100 BKN180
     FM240300 VRB03KT P6SM SCT100 BKN160=

USA.gov is the U.S. government's official web portal to all federal, state and local government web resources and services.